sensor_id;sensor_type;location;lat;lon;timestamp;temperature;humidity
8832;DHT22;4452;50.756;4.472;2024-02-15T00:01:06;12.80;99.90
8832;DHT22;4452;50.756;4.472;2024-02-15T00:03:32;12.80;99.90
8832;DHT22;4452;50.756;4.472;2024-02-15T00:05:58;12.80;99.90
8832;DHT22;4452;50.756;4.472;2024-02-15T00:08:23;12.80;99.90
8832;DHT22;4452;50.756;4.472;2024-02-15T00:10:50;12.80;99.90
8832;DHT22;4452;50.756;4.472;2024-02-15T00:13:16;12.80;99.90
8832;DHT22;4452;50.756;4.472;2024-02-15T00:15:42;12.80;99.90
8832;DHT22;4452;50.756;4.472;2024-02-15T00:18:07;12.70;99.90
8832;DHT22;4452;50.756;4.472;2024-02-15T00:20:33;12.80;99.90
8832;DHT22;4452;50.756;4.472;2024-02-15T00:23:02;12.80;99.90
8832;DHT22;4452;50.756;4.472;2024-02-15T00:25:27;12.80;99.90
8832;DHT22;4452;50.756;4.472;2024-02-15T00:27:53;12.80;99.90
8832;DHT22;4452;50.756;4.472;2024-02-15T00:30:19;12.80;99.90
8832;DHT22;4452;50.756;4.472;2024-02-15T00:32:44;12.90;99.90
8832;DHT22;4452;50.756;4.472;2024-02-15T00:35:11;12.80;99.90
8832;DHT22;4452;50.756;4.472;2024-02-15T00:37:40;12.80;99.90
8832;DHT22;4452;50.756;4.472;2024-02-15T00:40:06;12.80;99.90
8832;DHT22;4452;50.756;4.472;2024-02-15T00:42:32;12.80;99.90
8832;DHT22;4452;50.756;4.472;2024-02-15T00:44:58;12.80;99.90
8832;DHT22;4452;50.756;4.472;2024-02-15T00:47:25;12.80;99.90
8832;DHT22;4452;50.756;4.472;2024-02-15T00:49:51;12.80;99.90
8832;DHT22;4452;50.756;4.472;2024-02-15T00:52:17;12.80;99.90
8832;DHT22;4452;50.756;4.472;2024-02-15T00:54:46;12.80;99.90
8832;DHT22;4452;50.756;4.472;2024-02-15T00:57:12;12.80;99.90
8832;DHT22;4452;50.756;4.472;2024-02-15T00:59:38;12.70;99.90
8832;DHT22;4452;50.756;4.472;2024-02-15T01:02:04;12.80;99.90
8832;DHT22;4452;50.756;4.472;2024-02-15T01:04:30;12.80;99.90
8832;DHT22;4452;50.756;4.472;2024-02-15T01:06:56;12.70;99.90
8832;DHT22;4452;50.756;4.472;2024-02-15T01:09:22;12.70;99.90
8832;DHT22;4452;50.756;4.472;2024-02-15T01:11:48;12.70;99.90
8832;DHT22;4452;50.756;4.472;2024-02-15T01:14:14;12.70;99.90
8832;DHT22;4452;50.756;4.472;2024-02-15T01:16:44;12.70;99.90
8832;DHT22;4452;50.756;4.472;2024-02-15T01:19:10;12.70;99.90
8832;DHT22;4452;50.756;4.472;2024-02-15T01:21:36;12.60;99.90
8832;DHT22;4452;50.756;4.472;2024-02-15T01:24:02;12.70;99.90
8832;DHT22;4452;50.756;4.472;2024-02-15T01:26:29;12.70;99.90
8832;DHT22;4452;50.756;4.472;2024-02-15T01:28:55;12.70;99.90
8832;DHT22;4452;50.756;4.472;2024-02-15T01:31:21;12.60;99.90
8832;DHT22;4452;50.756;4.472;2024-02-15T01:33:47;12.60;99.90
8832;DHT22;4452;50.756;4.472;2024-02-15T01:36:17;12.70;99.90
8832;DHT22;4452;50.756;4.472;2024-02-15T01:38:43;12.60;99.90
8832;DHT22;4452;50.756;4.472;2024-02-15T01:41:09;12.70;99.90
8832;DHT22;4452;50.756;4.472;2024-02-15T01:43:35;12.70;99.90
8832;DHT22;4452;50.756;4.472;2024-02-15T01:46:09;12.60;99.90
8832;DHT22;4452;50.756;4.472;2024-02-15T01:48:36;12.70;99.90
8832;DHT22;4452;50.756;4.472;2024-02-15T01:51:03;12.60;99.90
8832;DHT22;4452;50.756;4.472;2024-02-15T01:53:29;12.60;99.90
8832;DHT22;4452;50.756;4.472;2024-02-15T01:55:56;12.50;99.90
8832;DHT22;4452;50.756;4.472;2024-02-15T01:58:25;12.50;99.90
8832;DHT22;4452;50.756;4.472;2024-02-15T02:00:51;12.50;99.90
8832;DHT22;4452;50.756;4.472;2024-02-15T02:03:21;12.40;99.90
8832;DHT22;4452;50.756;4.472;2024-02-15T02:05:47;12.40;99.90
8832;DHT22;4452;50.756;4.472;2024-02-15T02:08:13;12.40;99.90
8832;DHT22;4452;50.756;4.472;2024-02-15T02:10:40;12.50;99.90
8832;DHT22;4452;50.756;4.472;2024-02-15T02:13:05;12.50;99.90
8832;DHT22;4452;50.756;4.472;2024-02-15T02:15:32;12.50;99.90
8832;DHT22;4452;50.756;4.472;2024-02-15T02:17:59;12.60;99.90
8832;DHT22;4452;50.756;4.472;2024-02-15T02:20:26;12.50;99.90
8832;DHT22;4452;50.756;4.472;2024-02-15T02:22:53;12.50;99.90
8832;DHT22;4452;50.756;4.472;2024-02-15T02:25:23;12.50;99.90
8832;DHT22;4452;50.756;4.472;2024-02-15T02:27:52;12.50;99.90
8832;DHT22;4452;50.756;4.472;2024-02-15T02:30:17;12.50;99.90
8832;DHT22;4452;50.756;4.472;2024-02-15T02:32:48;12.50;99.90
8832;DHT22;4452;50.756;4.472;2024-02-15T02:35:14;12.50;99.90
8832;DHT22;4452;50.756;4.472;2024-02-15T02:37:42;12.50;99.90
8832;DHT22;4452;50.756;4.472;2024-02-15T02:40:08;12.50;99.90
8832;DHT22;4452;50.756;4.472;2024-02-15T02:42:52;12.50;99.90
8832;DHT22;4452;50.756;4.472;2024-02-15T02:45:19;12.50;99.90
8832;DHT22;4452;50.756;4.472;2024-02-15T02:47:50;12.60;99.90
8832;DHT22;4452;50.756;4.472;2024-02-15T02:50:16;12.60;99.90
8832;DHT22;4452;50.756;4.472;2024-02-15T02:52:43;12.60;99.90
8832;DHT22;4452;50.756;4.472;2024-02-15T02:55:09;12.60;99.90
8832;DHT22;4452;50.756;4.472;2024-02-15T02:57:36;12.60;99.90
8832;DHT22;4452;50.756;4.472;2024-02-15T03:00:06;12.50;99.90
8832;DHT22;4452;50.756;4.472;2024-02-15T03:02:42;12.50;99.90
8832;DHT22;4452;50.756;4.472;2024-02-15T03:05:09;12.50;99.90
8832;DHT22;4452;50.756;4.472;2024-02-15T03:07:35;12.50;99.90
8832;DHT22;4452;50.756;4.472;2024-02-15T03:10:02;12.50;99.90
8832;DHT22;4452;50.756;4.472;2024-02-15T03:12:30;12.50;99.90
8832;DHT22;4452;50.756;4.472;2024-02-15T03:14:56;12.50;99.90
8832;DHT22;4452;50.756;4.472;2024-02-15T03:17:23;12.50;99.90
8832;DHT22;4452;50.756;4.472;2024-02-15T03:19:49;12.50;99.90
8832;DHT22;4452;50.756;4.472;2024-02-15T03:22:15;12.40;99.90
8832;DHT22;4452;50.756;4.472;2024-02-15T03:24:40;12.40;99.90
8832;DHT22;4452;50.756;4.472;2024-02-15T03:27:07;12.40;99.90
8832;DHT22;4452;50.756;4.472;2024-02-15T03:29:32;12.40;99.90
8832;DHT22;4452;50.756;4.472;2024-02-15T03:32:01;12.40;99.90
8832;DHT22;4452;50.756;4.472;2024-02-15T03:34:28;12.50;99.90
8832;DHT22;4452;50.756;4.472;2024-02-15T03:36:53;12.40;99.90
8832;DHT22;4452;50.756;4.472;2024-02-15T03:39:20;12.40;99.90
8832;DHT22;4452;50.756;4.472;2024-02-15T03:41:46;12.40;99.90
8832;DHT22;4452;50.756;4.472;2024-02-15T03:44:14;12.40;99.90
8832;DHT22;4452;50.756;4.472;2024-02-15T03:46:40;12.40;99.90
8832;DHT22;4452;50.756;4.472;2024-02-15T03:49:06;12.40;99.90
8832;DHT22;4452;50.756;4.472;2024-02-15T03:51:34;12.50;99.90
8832;DHT22;4452;50.756;4.472;2024-02-15T03:54:00;12.40;99.90
8832;DHT22;4452;50.756;4.472;2024-02-15T03:56:25;12.50;99.90
8832;DHT22;4452;50.756;4.472;2024-02-15T03:58:51;12.40;99.90
8832;DHT22;4452;50.756;4.472;2024-02-15T04:01:17;12.50;99.90
8832;DHT22;4452;50.756;4.472;2024-02-15T04:03:42;12.50;99.90
8832;DHT22;4452;50.756;4.472;2024-02-15T04:06:08;12.50;99.90
8832;DHT22;4452;50.756;4.472;2024-02-15T04:08:38;12.50;99.90
8832;DHT22;4452;50.756;4.472;2024-02-15T04:11:05;12.50;99.90
8832;DHT22;4452;50.756;4.472;2024-02-15T04:13:35;12.50;99.90
8832;DHT22;4452;50.756;4.472;2024-02-15T04:16:01;12.50;99.90
8832;DHT22;4452;50.756;4.472;2024-02-15T04:18:26;12.50;99.90
8832;DHT22;4452;50.756;4.472;2024-02-15T04:20:52;12.50;99.90
8832;DHT22;4452;50.756;4.472;2024-02-15T04:23:18;12.50;99.90
8832;DHT22;4452;50.756;4.472;2024-02-15T04:25:44;12.50;99.90
8832;DHT22;4452;50.756;4.472;2024-02-15T04:28:16;12.50;99.90
8832;DHT22;4452;50.756;4.472;2024-02-15T04:30:42;12.50;99.90
8832;DHT22;4452;50.756;4.472;2024-02-15T04:33:07;12.50;99.90
8832;DHT22;4452;50.756;4.472;2024-02-15T04:35:34;12.50;99.90
8832;DHT22;4452;50.756;4.472;2024-02-15T04:37:59;12.50;99.90
8832;DHT22;4452;50.756;4.472;2024-02-15T04:40:25;12.50;99.90
8832;DHT22;4452;50.756;4.472;2024-02-15T04:42:51;12.50;99.90
8832;DHT22;4452;50.756;4.472;2024-02-15T04:45:17;12.50;99.90
8832;DHT22;4452;50.756;4.472;2024-02-15T04:47:44;12.50;99.90
8832;DHT22;4452;50.756;4.472;2024-02-15T04:50:16;12.50;99.90
8832;DHT22;4452;50.756;4.472;2024-02-15T04:52:43;12.50;99.90
8832;DHT22;4452;50.756;4.472;2024-02-15T04:55:11;12.50;99.90
8832;DHT22;4452;50.756;4.472;2024-02-15T04:57:37;12.50;99.90
8832;DHT22;4452;50.756;4.472;2024-02-15T05:00:03;12.50;99.90
8832;DHT22;4452;50.756;4.472;2024-02-15T05:02:37;12.60;99.90
8832;DHT22;4452;50.756;4.472;2024-02-15T05:05:07;12.60;99.90
8832;DHT22;4452;50.756;4.472;2024-02-15T05:07:34;12.60;99.90
8832;DHT22;4452;50.756;4.472;2024-02-15T05:10:00;12.60;99.90
8832;DHT22;4452;50.756;4.472;2024-02-15T05:12:31;12.60;99.90
8832;DHT22;4452;50.756;4.472;2024-02-15T05:14:59;12.50;99.90
8832;DHT22;4452;50.756;4.472;2024-02-15T05:17:24;12.50;99.90
8832;DHT22;4452;50.756;4.472;2024-02-15T05:19:50;12.50;99.90
8832;DHT22;4452;50.756;4.472;2024-02-15T05:22:16;12.50;99.90
8832;DHT22;4452;50.756;4.472;2024-02-15T05:24:41;12.50;99.90
8832;DHT22;4452;50.756;4.472;2024-02-15T05:27:07;12.50;99.90
8832;DHT22;4452;50.756;4.472;2024-02-15T05:29:33;12.50;99.90
8832;DHT22;4452;50.756;4.472;2024-02-15T05:32:00;12.50;99.90
8832;DHT22;4452;50.756;4.472;2024-02-15T05:34:26;12.50;99.90
8832;DHT22;4452;50.756;4.472;2024-02-15T05:36:52;12.50;99.90
8832;DHT22;4452;50.756;4.472;2024-02-15T05:39:18;12.50;99.90
8832;DHT22;4452;50.756;4.472;2024-02-15T05:41:47;12.40;99.90
8832;DHT22;4452;50.756;4.472;2024-02-15T05:44:12;12.40;99.90
8832;DHT22;4452;50.756;4.472;2024-02-15T05:46:43;12.40;99.90
8832;DHT22;4452;50.756;4.472;2024-02-15T05:49:09;12.30;99.90
8832;DHT22;4452;50.756;4.472;2024-02-15T05:51:40;12.40;99.90
8832;DHT22;4452;50.756;4.472;2024-02-15T05:54:06;12.40;99.90
8832;DHT22;4452;50.756;4.472;2024-02-15T05:56:32;12.40;99.90
8832;DHT22;4452;50.756;4.472;2024-02-15T05:58:57;12.40;99.90
8832;DHT22;4452;50.756;4.472;2024-02-15T06:01:23;12.40;99.90
8832;DHT22;4452;50.756;4.472;2024-02-15T06:03:49;12.40;99.90
8832;DHT22;4452;50.756;4.472;2024-02-15T06:06:16;12.30;99.90
8832;DHT22;4452;50.756;4.472;2024-02-15T06:08:46;12.30;99.90
8832;DHT22;4452;50.756;4.472;2024-02-15T06:11:12;12.30;99.90
8832;DHT22;4452;50.756;4.472;2024-02-15T06:13:40;12.40;99.90
8832;DHT22;4452;50.756;4.472;2024-02-15T06:16:06;12.30;99.90
8832;DHT22;4452;50.756;4.472;2024-02-15T06:18:34;12.10;99.90
8832;DHT22;4452;50.756;4.472;2024-02-15T06:21:01;12.30;99.90
8832;DHT22;4452;50.756;4.472;2024-02-15T06:23:27;12.30;99.90
8832;DHT22;4452;50.756;4.472;2024-02-15T06:25:55;12.40;99.90
8832;DHT22;4452;50.756;4.472;2024-02-15T06:28:24;12.30;99.90
8832;DHT22;4452;50.756;4.472;2024-02-15T06:31:09;12.40;99.90
8832;DHT22;4452;50.756;4.472;2024-02-15T06:33:54;12.30;99.90
8832;DHT22;4452;50.756;4.472;2024-02-15T06:36:48;12.30;99.90
8832;DHT22;4452;50.756;4.472;2024-02-15T06:39:32;12.30;99.90
8832;DHT22;4452;50.756;4.472;2024-02-15T06:42:12;12.20;99.90
8832;DHT22;4452;50.756;4.472;2024-02-15T06:44:40;12.20;99.90
8832;DHT22;4452;50.756;4.472;2024-02-15T06:47:06;12.10;99.90
8832;DHT22;4452;50.756;4.472;2024-02-15T06:49:32;12.10;99.90
8832;DHT22;4452;50.756;4.472;2024-02-15T06:51:59;12.10;99.90
8832;DHT22;4452;50.756;4.472;2024-02-15T06:54:27;12.10;99.90
8832;DHT22;4452;50.756;4.472;2024-02-15T06:56:53;12.10;99.90
8832;DHT22;4452;50.756;4.472;2024-02-15T06:59:20;12.10;99.90
8832;DHT22;4452;50.756;4.472;2024-02-15T07:01:50;12.10;99.90
8832;DHT22;4452;50.756;4.472;2024-02-15T07:04:18;12.10;99.90
8832;DHT22;4452;50.756;4.472;2024-02-15T07:06:44;12.10;99.90
8832;DHT22;4452;50.756;4.472;2024-02-15T07:09:13;12.10;99.90
8832;DHT22;4452;50.756;4.472;2024-02-15T07:11:41;12.10;99.90
8832;DHT22;4452;50.756;4.472;2024-02-15T07:14:06;12.10;99.90
8832;DHT22;4452;50.756;4.472;2024-02-15T07:16:34;12.30;99.90
8832;DHT22;4452;50.756;4.472;2024-02-15T07:19:00;12.20;99.90
8832;DHT22;4452;50.756;4.472;2024-02-15T07:21:26;12.20;99.90
8832;DHT22;4452;50.756;4.472;2024-02-15T07:23:56;12.30;99.90
8832;DHT22;4452;50.756;4.472;2024-02-15T07:26:23;12.30;99.90
8832;DHT22;4452;50.756;4.472;2024-02-15T07:28:53;12.40;99.90
8832;DHT22;4452;50.756;4.472;2024-02-15T07:31:19;12.40;99.90
8832;DHT22;4452;50.756;4.472;2024-02-15T07:33:47;12.40;99.90
8832;DHT22;4452;50.756;4.472;2024-02-15T07:36:18;12.20;99.90
8832;DHT22;4452;50.756;4.472;2024-02-15T07:38:43;12.40;99.90
8832;DHT22;4452;50.756;4.472;2024-02-15T07:41:11;12.40;99.90
8832;DHT22;4452;50.756;4.472;2024-02-15T07:43:38;12.40;99.90
8832;DHT22;4452;50.756;4.472;2024-02-15T07:46:05;12.50;99.90
8832;DHT22;4452;50.756;4.472;2024-02-15T07:48:30;12.50;99.90
8832;DHT22;4452;50.756;4.472;2024-02-15T07:50:57;12.50;99.90
8832;DHT22;4452;50.756;4.472;2024-02-15T07:53:24;12.50;99.90
8832;DHT22;4452;50.756;4.472;2024-02-15T07:55:50;12.60;99.90
8832;DHT22;4452;50.756;4.472;2024-02-15T07:58:16;12.60;99.90
8832;DHT22;4452;50.756;4.472;2024-02-15T08:00:45;12.60;99.90
8832;DHT22;4452;50.756;4.472;2024-02-15T08:03:11;12.60;99.90
8832;DHT22;4452;50.756;4.472;2024-02-15T08:05:36;12.70;99.90
8832;DHT22;4452;50.756;4.472;2024-02-15T08:08:03;12.70;99.90
8832;DHT22;4452;50.756;4.472;2024-02-15T08:10:30;12.70;99.90
8832;DHT22;4452;50.756;4.472;2024-02-15T08:12:56;12.80;99.90
8832;DHT22;4452;50.756;4.472;2024-02-15T08:15:23;12.90;99.90
8832;DHT22;4452;50.756;4.472;2024-02-15T08:17:49;12.80;99.90
8832;DHT22;4452;50.756;4.472;2024-02-15T08:20:15;12.80;99.90
8832;DHT22;4452;50.756;4.472;2024-02-15T08:22:47;12.90;99.90
8832;DHT22;4452;50.756;4.472;2024-02-15T08:25:13;12.90;99.90
8832;DHT22;4452;50.756;4.472;2024-02-15T08:27:43;13.00;99.90
8832;DHT22;4452;50.756;4.472;2024-02-15T08:30:10;13.00;99.90
8832;DHT22;4452;50.756;4.472;2024-02-15T08:32:41;13.00;99.90
8832;DHT22;4452;50.756;4.472;2024-02-15T08:35:14;13.10;99.90
8832;DHT22;4452;50.756;4.472;2024-02-15T08:37:40;13.10;99.90
8832;DHT22;4452;50.756;4.472;2024-02-15T08:40:11;13.10;99.90
8832;DHT22;4452;50.756;4.472;2024-02-15T08:42:43;13.20;99.90
8832;DHT22;4452;50.756;4.472;2024-02-15T08:45:10;13.20;99.90
8832;DHT22;4452;50.756;4.472;2024-02-15T08:47:40;13.30;99.90
8832;DHT22;4452;50.756;4.472;2024-02-15T08:50:06;13.30;99.90
8832;DHT22;4452;50.756;4.472;2024-02-15T08:52:34;13.30;99.90
8832;DHT22;4452;50.756;4.472;2024-02-15T08:55:00;13.30;99.90
8832;DHT22;4452;50.756;4.472;2024-02-15T08:57:26;13.40;99.90
8832;DHT22;4452;50.756;4.472;2024-02-15T08:59:52;13.40;99.90
8832;DHT22;4452;50.756;4.472;2024-02-15T09:02:21;13.50;99.90
8832;DHT22;4452;50.756;4.472;2024-02-15T09:04:46;13.40;99.90
8832;DHT22;4452;50.756;4.472;2024-02-15T09:07:12;13.50;99.90
8832;DHT22;4452;50.756;4.472;2024-02-15T09:09:38;13.50;99.90
8832;DHT22;4452;50.756;4.472;2024-02-15T09:12:03;13.50;99.90
8832;DHT22;4452;50.756;4.472;2024-02-15T09:14:35;13.50;99.90
8832;DHT22;4452;50.756;4.472;2024-02-15T09:17:02;13.60;99.90
8832;DHT22;4452;50.756;4.472;2024-02-15T09:19:33;13.60;99.90
8832;DHT22;4452;50.756;4.472;2024-02-15T09:21:59;13.60;99.90
8832;DHT22;4452;50.756;4.472;2024-02-15T09:24:25;13.60;99.90
8832;DHT22;4452;50.756;4.472;2024-02-15T09:26:51;13.60;99.90
8832;DHT22;4452;50.756;4.472;2024-02-15T09:29:18;13.70;99.90
8832;DHT22;4452;50.756;4.472;2024-02-15T09:31:49;13.70;99.90
8832;DHT22;4452;50.756;4.472;2024-02-15T09:34:14;13.80;99.90
8832;DHT22;4452;50.756;4.472;2024-02-15T09:36:40;13.80;99.90
8832;DHT22;4452;50.756;4.472;2024-02-15T09:39:06;13.90;99.90
8832;DHT22;4452;50.756;4.472;2024-02-15T09:41:32;14.00;99.90
8832;DHT22;4452;50.756;4.472;2024-02-15T09:43:59;14.20;99.90
8832;DHT22;4452;50.756;4.472;2024-02-15T09:46:26;14.20;99.90
8832;DHT22;4452;50.756;4.472;2024-02-15T09:48:56;14.30;99.90
8832;DHT22;4452;50.756;4.472;2024-02-15T09:51:25;14.40;99.90
8832;DHT22;4452;50.756;4.472;2024-02-15T09:53:52;14.40;99.90
8832;DHT22;4452;50.756;4.472;2024-02-15T09:56:20;14.60;99.90
8832;DHT22;4452;50.756;4.472;2024-02-15T09:58:47;14.60;99.90
8832;DHT22;4452;50.756;4.472;2024-02-15T10:01:13;14.70;99.90
8832;DHT22;4452;50.756;4.472;2024-02-15T10:03:40;14.80;99.90
8832;DHT22;4452;50.756;4.472;2024-02-15T10:06:06;14.70;99.90
8832;DHT22;4452;50.756;4.472;2024-02-15T10:08:32;14.70;99.90
8832;DHT22;4452;50.756;4.472;2024-02-15T10:11:18;14.80;99.90
8832;DHT22;4452;50.756;4.472;2024-02-15T10:13:45;14.90;99.90
8832;DHT22;4452;50.756;4.472;2024-02-15T10:16:18;14.90;99.90
8832;DHT22;4452;50.756;4.472;2024-02-15T10:18:47;14.90;99.90
8832;DHT22;4452;50.756;4.472;2024-02-15T10:21:26;14.90;99.90
8832;DHT22;4452;50.756;4.472;2024-02-15T10:24:07;14.90;99.90
8832;DHT22;4452;50.756;4.472;2024-02-15T10:26:34;15.10;99.90
8832;DHT22;4452;50.756;4.472;2024-02-15T10:29:11;15.00;99.90
8832;DHT22;4452;50.756;4.472;2024-02-15T10:31:53;15.20;99.90
8832;DHT22;4452;50.756;4.472;2024-02-15T10:34:20;15.30;99.90
8832;DHT22;4452;50.756;4.472;2024-02-15T10:36:46;15.60;99.90
8832;DHT22;4452;50.756;4.472;2024-02-15T10:39:12;15.50;99.90
8832;DHT22;4452;50.756;4.472;2024-02-15T10:41:53;15.70;99.90
8832;DHT22;4452;50.756;4.472;2024-02-15T10:44:23;15.60;99.90
8832;DHT22;4452;50.756;4.472;2024-02-15T10:46:51;15.70;99.90
8832;DHT22;4452;50.756;4.472;2024-02-15T10:49:22;15.90;99.90
8832;DHT22;4452;50.756;4.472;2024-02-15T10:51:56;16.00;99.90
8832;DHT22;4452;50.756;4.472;2024-02-15T10:57:04;16.00;99.90
8832;DHT22;4452;50.756;4.472;2024-02-15T10:59:34;16.00;99.90
8832;DHT22;4452;50.756;4.472;2024-02-15T11:02:14;15.90;99.90
8832;DHT22;4452;50.756;4.472;2024-02-15T11:04:52;15.90;99.90
8832;DHT22;4452;50.756;4.472;2024-02-15T11:07:24;16.00;99.90
8832;DHT22;4452;50.756;4.472;2024-02-15T11:09:50;16.10;99.90
8832;DHT22;4452;50.756;4.472;2024-02-15T11:12:17;16.10;99.90
8832;DHT22;4452;50.756;4.472;2024-02-15T11:14:45;16.20;99.90
8832;DHT22;4452;50.756;4.472;2024-02-15T11:20:09;16.30;99.90
8832;DHT22;4452;50.756;4.472;2024-02-15T11:22:38;16.20;99.90
8832;DHT22;4452;50.756;4.472;2024-02-15T11:25:05;16.10;99.90
8832;DHT22;4452;50.756;4.472;2024-02-15T11:27:37;16.30;99.90
8832;DHT22;4452;50.756;4.472;2024-02-15T11:30:05;16.50;99.90
8832;DHT22;4452;50.756;4.472;2024-02-15T11:32:50;16.40;99.90
8832;DHT22;4452;50.756;4.472;2024-02-15T11:35:23;16.40;99.90
8832;DHT22;4452;50.756;4.472;2024-02-15T11:40:25;16.50;99.90
8832;DHT22;4452;50.756;4.472;2024-02-15T11:43:01;16.50;99.90
8832;DHT22;4452;50.756;4.472;2024-02-15T11:45:30;16.60;99.90
8832;DHT22;4452;50.756;4.472;2024-02-15T11:48:03;16.60;99.90
8832;DHT22;4452;50.756;4.472;2024-02-15T11:50:34;16.70;99.90
8832;DHT22;4452;50.756;4.472;2024-02-15T11:53:04;16.60;99.90
8832;DHT22;4452;50.756;4.472;2024-02-15T11:55:40;16.60;99.90
8832;DHT22;4452;50.756;4.472;2024-02-15T11:58:07;16.60;99.90
8832;DHT22;4452;50.756;4.472;2024-02-15T12:00:33;17.00;99.90
8832;DHT22;4452;50.756;4.472;2024-02-15T12:03:18;17.00;99.90
8832;DHT22;4452;50.756;4.472;2024-02-15T12:06:02;17.00;99.90
8832;DHT22;4452;50.756;4.472;2024-02-15T12:08:48;17.00;99.90
8832;DHT22;4452;50.756;4.472;2024-02-15T12:11:32;17.00;99.90
8832;DHT22;4452;50.756;4.472;2024-02-15T12:14:17;17.00;99.90
8832;DHT22;4452;50.756;4.472;2024-02-15T12:17:08;17.00;99.90
8832;DHT22;4452;50.756;4.472;2024-02-15T12:19:54;16.90;99.90
8832;DHT22;4452;50.756;4.472;2024-02-15T12:25:02;17.20;99.90
8832;DHT22;4452;50.756;4.472;2024-02-15T12:27:38;17.30;99.90
8832;DHT22;4452;50.756;4.472;2024-02-15T12:30:05;17.30;99.90
8832;DHT22;4452;50.756;4.472;2024-02-15T12:32:32;16.90;99.90
8832;DHT22;4452;50.756;4.472;2024-02-15T12:35:11;17.10;99.90
8832;DHT22;4452;50.756;4.472;2024-02-15T12:40:20;17.40;99.90
8832;DHT22;4452;50.756;4.472;2024-02-15T12:42:47;17.30;99.90
8832;DHT22;4452;50.756;4.472;2024-02-15T12:45:20;17.50;99.90
8832;DHT22;4452;50.756;4.472;2024-02-15T12:47:56;17.40;99.90
8832;DHT22;4452;50.756;4.472;2024-02-15T12:50:29;17.20;99.90
8832;DHT22;4452;50.756;4.472;2024-02-15T12:52:55;17.30;99.90
8832;DHT22;4452;50.756;4.472;2024-02-15T12:55:22;17.40;99.90
8832;DHT22;4452;50.756;4.472;2024-02-15T12:57:53;17.30;99.90
8832;DHT22;4452;50.756;4.472;2024-02-15T13:00:25;17.30;99.90
8832;DHT22;4452;50.756;4.472;2024-02-15T13:02:55;17.50;99.90
8832;DHT22;4452;50.756;4.472;2024-02-15T13:05:22;17.50;99.90
8832;DHT22;4452;50.756;4.472;2024-02-15T13:07:52;17.50;99.90
8832;DHT22;4452;50.756;4.472;2024-02-15T13:10:21;17.40;99.90
8832;DHT22;4452;50.756;4.472;2024-02-15T13:12:47;17.50;99.90
8832;DHT22;4452;50.756;4.472;2024-02-15T13:15:15;17.80;99.90
8832;DHT22;4452;50.756;4.472;2024-02-15T13:17:46;17.80;99.90
8832;DHT22;4452;50.756;4.472;2024-02-15T13:20:14;17.90;99.90
8832;DHT22;4452;50.756;4.472;2024-02-15T13:22:43;17.80;99.90
8832;DHT22;4452;50.756;4.472;2024-02-15T13:25:10;18.00;99.90
8832;DHT22;4452;50.756;4.472;2024-02-15T13:27:36;18.00;99.90
8832;DHT22;4452;50.756;4.472;2024-02-15T13:30:06;17.70;99.90
8832;DHT22;4452;50.756;4.472;2024-02-15T13:32:38;17.50;99.90
8832;DHT22;4452;50.756;4.472;2024-02-15T13:35:08;17.70;99.90
8832;DHT22;4452;50.756;4.472;2024-02-15T13:37:48;17.50;99.90
8832;DHT22;4452;50.756;4.472;2024-02-15T13:40:15;17.70;99.90
8832;DHT22;4452;50.756;4.472;2024-02-15T13:42:44;17.80;99.90
8832;DHT22;4452;50.756;4.472;2024-02-15T13:45:23;18.10;99.90
8832;DHT22;4452;50.756;4.472;2024-02-15T13:47:53;18.00;99.90
8832;DHT22;4452;50.756;4.472;2024-02-15T13:50:19;18.10;99.90
8832;DHT22;4452;50.756;4.472;2024-02-15T13:52:46;18.30;99.90
8832;DHT22;4452;50.756;4.472;2024-02-15T13:55:17;18.10;99.90
8832;DHT22;4452;50.756;4.472;2024-02-15T13:57:47;18.00;99.90
8832;DHT22;4452;50.756;4.472;2024-02-15T14:00:16;17.90;99.90
8832;DHT22;4452;50.756;4.472;2024-02-15T14:02:49;18.00;99.90
8832;DHT22;4452;50.756;4.472;2024-02-15T14:05:15;18.10;99.90
8832;DHT22;4452;50.756;4.472;2024-02-15T14:07:49;17.90;99.90
8832;DHT22;4452;50.756;4.472;2024-02-15T14:10:16;17.90;99.90
8832;DHT22;4452;50.756;4.472;2024-02-15T14:12:46;17.90;99.90
8832;DHT22;4452;50.756;4.472;2024-02-15T14:15:11;18.00;99.90
8832;DHT22;4452;50.756;4.472;2024-02-15T14:17:38;17.90;99.90
8832;DHT22;4452;50.756;4.472;2024-02-15T14:20:04;17.80;99.90
8832;DHT22;4452;50.756;4.472;2024-02-15T14:22:34;17.60;99.90
8832;DHT22;4452;50.756;4.472;2024-02-15T14:25:00;17.50;99.90
8832;DHT22;4452;50.756;4.472;2024-02-15T14:27:26;17.50;99.90
8832;DHT22;4452;50.756;4.472;2024-02-15T14:29:52;17.40;99.90
8832;DHT22;4452;50.756;4.472;2024-02-15T14:32:36;17.20;99.90
8832;DHT22;4452;50.756;4.472;2024-02-15T14:35:20;17.20;99.90
8832;DHT22;4452;50.756;4.472;2024-02-15T14:37:46;17.30;99.90
8832;DHT22;4452;50.756;4.472;2024-02-15T14:40:12;17.30;99.90
8832;DHT22;4452;50.756;4.472;2024-02-15T14:42:41;17.40;99.90
8832;DHT22;4452;50.756;4.472;2024-02-15T14:45:09;17.40;99.90
8832;DHT22;4452;50.756;4.472;2024-02-15T14:47:35;17.40;99.90
8832;DHT22;4452;50.756;4.472;2024-02-15T14:50:01;17.40;99.90
8832;DHT22;4452;50.756;4.472;2024-02-15T14:52:26;17.40;99.90
8832;DHT22;4452;50.756;4.472;2024-02-15T14:54:52;17.30;99.90
8832;DHT22;4452;50.756;4.472;2024-02-15T14:57:18;17.30;99.90
8832;DHT22;4452;50.756;4.472;2024-02-15T14:59:44;17.40;99.90
8832;DHT22;4452;50.756;4.472;2024-02-15T15:02:09;17.20;99.90
8832;DHT22;4452;50.756;4.472;2024-02-15T15:04:35;17.00;99.90
8832;DHT22;4452;50.756;4.472;2024-02-15T15:07:21;16.90;99.90
8832;DHT22;4452;50.756;4.472;2024-02-15T15:10:05;16.80;99.90
8832;DHT22;4452;50.756;4.472;2024-02-15T15:12:49;16.70;99.90
8832;DHT22;4452;50.756;4.472;2024-02-15T15:15:15;16.70;99.90
8832;DHT22;4452;50.756;4.472;2024-02-15T15:17:44;16.70;99.90
8832;DHT22;4452;50.756;4.472;2024-02-15T15:20:13;16.70;99.90
8832;DHT22;4452;50.756;4.472;2024-02-15T15:22:43;16.70;99.90
8832;DHT22;4452;50.756;4.472;2024-02-15T15:25:11;16.80;99.90
8832;DHT22;4452;50.756;4.472;2024-02-15T15:27:40;17.00;99.90
8832;DHT22;4452;50.756;4.472;2024-02-15T15:30:09;17.10;99.90
8832;DHT22;4452;50.756;4.472;2024-02-15T15:32:37;17.20;99.90
8832;DHT22;4452;50.756;4.472;2024-02-15T15:35:10;17.10;99.90
8832;DHT22;4452;50.756;4.472;2024-02-15T15:37:36;17.00;99.90
8832;DHT22;4452;50.756;4.472;2024-02-15T15:40:02;16.90;99.90
8832;DHT22;4452;50.756;4.472;2024-02-15T15:42:29;16.80;99.90
8832;DHT22;4452;50.756;4.472;2024-02-15T15:44:58;16.70;99.90
8832;DHT22;4452;50.756;4.472;2024-02-15T15:47:26;16.50;99.90
8832;DHT22;4452;50.756;4.472;2024-02-15T15:49:54;16.40;99.90
8832;DHT22;4452;50.756;4.472;2024-02-15T15:52:25;16.20;99.90
8832;DHT22;4452;50.756;4.472;2024-02-15T15:54:54;16.10;99.90
8832;DHT22;4452;50.756;4.472;2024-02-15T15:57:21;16.00;99.90
8832;DHT22;4452;50.756;4.472;2024-02-15T15:59:47;15.90;99.90
8832;DHT22;4452;50.756;4.472;2024-02-15T16:02:15;15.80;99.90
8832;DHT22;4452;50.756;4.472;2024-02-15T16:04:47;15.70;99.90
8832;DHT22;4452;50.756;4.472;2024-02-15T16:07:14;15.60;99.90
8832;DHT22;4452;50.756;4.472;2024-02-15T16:09:40;15.50;99.90
8832;DHT22;4452;50.756;4.472;2024-02-15T16:12:13;15.40;99.90
8832;DHT22;4452;50.756;4.472;2024-02-15T16:14:42;15.30;99.90
8832;DHT22;4452;50.756;4.472;2024-02-15T16:17:13;15.20;99.90
8832;DHT22;4452;50.756;4.472;2024-02-15T16:19:39;15.10;99.90
8832;DHT22;4452;50.756;4.472;2024-02-15T16:22:06;15.00;99.90
8832;DHT22;4452;50.756;4.472;2024-02-15T16:24:32;14.90;99.90